createdAt,value
2022-09-28T00:00:13.742Z,7.90
2022-09-28T00:05:21.542Z,7.90
2022-09-28T00:10:26.684Z,8.20
2022-09-28T00:15:32.049Z,8.20
2022-09-28T00:20:37.682Z,8.20
2022-09-28T00:25:43.058Z,8.40
2022-09-28T00:30:48.305Z,8.30
2022-09-28T00:35:58.634Z,8.20
2022-09-28T00:41:05.445Z,8.00
2022-09-28T00:46:16.257Z,8.00
2022-09-28T00:51:23.893Z,8.30
2022-09-28T00:56:32.198Z,8.20
2022-09-28T01:01:37.470Z,8.10
2022-09-28T01:06:44.690Z,8.10
2022-09-28T01:11:49.785Z,8.00
2022-09-28T01:17:17.741Z,8.00
2022-09-28T01:22:23.776Z,8.10
2022-09-28T01:27:50.056Z,8.20
2022-09-28T01:33:09.803Z,8.20
2022-09-28T01:38:24.788Z,8.20
2022-09-28T01:43:33.558Z,8.10
2022-09-28T01:48:45.373Z,8.20
2022-09-28T01:53:56.537Z,8.10
2022-09-28T01:59:21.347Z,8.00
2022-09-28T02:04:32.391Z,7.70
2022-09-28T02:09:47.292Z,7.70
2022-09-28T02:14:56.550Z,7.30
2022-09-28T02:20:02.265Z,7.20
2022-09-28T02:25:12.607Z,7.20
2022-09-28T02:30:19.288Z,7.10
2022-09-28T02:35:23.402Z,7.10
2022-09-28T02:40:33.768Z,7.00
2022-09-28T02:45:58.890Z,6.80
2022-09-28T02:51:13.409Z,7.00
2022-09-28T02:56:37.259Z,6.90
2022-09-28T03:01:45.218Z,6.90
2022-09-28T03:06:56.049Z,6.60
2022-09-28T03:12:04.536Z,6.20
2022-09-28T03:17:10.333Z,6.20
2022-09-28T03:22:15.337Z,6.50
2022-09-28T03:27:23.070Z,6.00
2022-09-28T03:32:29.249Z,6.00
2022-09-28T03:37:34.401Z,6.00
2022-09-28T03:42:40.072Z,6.20
2022-09-28T03:47:47.198Z,6.20
2022-09-28T03:52:52.899Z,6.10
2022-09-28T03:57:58.180Z,6.30
2022-09-28T04:03:03.445Z,6.60
2022-09-28T04:08:09.245Z,6.80
2022-09-28T04:13:15.396Z,6.50
2022-09-28T04:18:20.811Z,6.60
2022-09-28T04:23:26.639Z,6.50
2022-09-28T04:28:49.562Z,6.50
2022-09-28T04:33:54.403Z,6.70
2022-09-28T04:39:00.069Z,6.70
2022-09-28T04:44:05.259Z,6.60
2022-09-28T04:49:12.267Z,6.30
2022-09-28T04:54:17.362Z,6.20
2022-09-28T04:59:22.517Z,6.10
2022-09-28T05:04:28.289Z,6.20
2022-09-28T05:09:37.673Z,6.20
2022-09-28T05:14:40.103Z,6.30
2022-09-28T05:19:45.510Z,6.50
2022-09-28T05:24:50.985Z,6.60
2022-09-28T05:29:56.460Z,6.80
2022-09-28T05:35:01.510Z,6.50
2022-09-28T05:40:07.707Z,6.80
2022-09-28T05:45:13.137Z,6.90
2022-09-28T05:50:18.807Z,7.00
2022-09-28T05:55:24.918Z,7.10
2022-09-28T06:00:31.200Z,6.90
2022-09-28T06:05:37.168Z,7.30
2022-09-28T06:10:42.807Z,7.50
2022-09-28T06:15:48.656Z,7.50
2022-09-28T06:20:53.177Z,7.70
2022-09-28T06:26:00.498Z,7.80
2022-09-28T06:31:05.516Z,7.90
2022-09-28T06:36:11.388Z,7.80
2022-09-28T06:41:17.714Z,8.20
2022-09-28T06:46:23.430Z,8.30
2022-09-28T06:51:28.763Z,8.50
2022-09-28T06:56:33.901Z,8.60
2022-09-28T07:01:39.381Z,9.30
2022-09-28T07:06:49.176Z,9.20
2022-09-28T07:11:54.710Z,9.60
2022-09-28T07:17:13.088Z,9.50
2022-09-28T07:22:06.304Z,9.20
2022-09-28T07:27:12.254Z,9.30
2022-09-28T07:32:17.722Z,9.40
2022-09-28T07:37:24.749Z,9.80
2022-09-28T07:42:30.424Z,10.00
2022-09-28T07:47:36.171Z,10.70
2022-09-28T07:52:43.599Z,10.90
2022-09-28T07:57:50.885Z,10.30
2022-09-28T08:02:55.785Z,10.20
2022-09-28T08:08:01.156Z,10.20
2022-09-28T08:13:08.697Z,10.20
2022-09-28T08:18:14.843Z,10.00
2022-09-28T08:23:20.528Z,10.20
2022-09-28T08:28:26.843Z,10.10
2022-09-28T08:33:32.115Z,9.90
2022-09-28T08:38:37.463Z,10.10
2022-09-28T08:43:54.595Z,10.10
2022-09-28T08:54:19.083Z,9.80
2022-09-28T08:59:30.329Z,9.90
2022-09-28T09:04:35.691Z,9.80
2022-09-28T09:09:43.665Z,9.70
2022-09-28T09:15:06.788Z,9.80
2022-09-28T09:20:21.488Z,9.80
2022-09-28T09:25:38.534Z,9.40
2022-09-28T09:30:51.205Z,9.20
2022-09-28T09:36:10.918Z,9.30
2022-09-28T09:41:27.937Z,9.40
2022-09-28T09:46:54.192Z,9.60
2022-09-28T09:52:16.849Z,9.60
2022-09-28T09:57:32.235Z,9.70
2022-09-28T10:02:39.082Z,9.60
2022-09-28T10:07:56.784Z,9.60
2022-09-28T10:13:02.349Z,9.60
2022-09-28T10:18:10.485Z,9.60
2022-09-28T10:23:19.070Z,9.60
2022-09-28T10:28:33.350Z,9.50
2022-09-28T10:33:39.580Z,9.40
2022-09-28T10:38:47.511Z,9.00
2022-09-28T10:44:06.865Z,8.90
2022-09-28T10:49:21.306Z,8.70
2022-09-28T10:54:29.559Z,8.60
2022-09-28T10:59:38.888Z,8.80
2022-09-28T11:04:45.843Z,8.40
2022-09-28T11:09:52.513Z,8.50
2022-09-28T11:14:58.546Z,8.50
2022-09-28T11:20:27.518Z,8.50
2022-09-28T11:25:32.265Z,8.60
2022-09-28T11:30:51.738Z,8.80
2022-09-28T11:36:18.074Z,8.90
2022-09-28T11:41:29.198Z,8.80
2022-09-28T11:46:37.196Z,9.00
2022-09-28T11:51:44.582Z,9.10
2022-09-28T11:56:50.978Z,9.50
2022-09-28T12:02:13.985Z,9.90
2022-09-28T12:07:23.278Z,9.80
2022-09-28T12:12:47.785Z,10.20
2022-09-28T12:18:00.342Z,10.30
2022-09-28T12:23:08.418Z,10.10
2022-09-28T12:28:28.162Z,10.30
2022-09-28T12:33:34.304Z,10.30
2022-09-28T12:39:18.652Z,10.70
2022-09-28T12:44:42.737Z,11.40
2022-09-28T12:55:23.239Z,11.50
2022-09-28T13:00:51.888Z,10.90
2022-09-28T13:06:18.331Z,10.70
2022-09-28T13:11:41.734Z,10.60
2022-09-28T13:16:50.503Z,10.70
2022-09-28T13:22:19.520Z,10.60
2022-09-28T13:27:28.119Z,10.80
2022-09-28T13:32:36.121Z,10.40
2022-09-28T13:37:42.252Z,10.60
2022-09-28T13:42:56.327Z,10.40
2022-09-28T13:48:16.851Z,10.60
2022-09-28T13:53:28.021Z,10.60
2022-09-28T13:58:36.724Z,10.60
2022-09-28T14:03:57.618Z,10.50
2022-09-28T14:09:12.000Z,10.50
2022-09-28T14:14:20.092Z,10.50
2022-09-28T14:19:29.289Z,10.40
2022-09-28T14:25:03.260Z,10.30
2022-09-28T14:30:14.183Z,10.20
2022-09-28T14:35:31.370Z,10.30
2022-09-28T14:41:10.778Z,10.10
2022-09-28T14:46:20.473Z,10.30
2022-09-28T14:51:31.021Z,10.30
2022-09-28T14:56:59.850Z,10.30
2022-09-28T15:02:13.719Z,10.20
2022-09-28T15:07:32.732Z,10.20
2022-09-28T15:12:37.981Z,10.20
2022-09-28T15:17:45.110Z,10.20
2022-09-28T15:22:50.198Z,10.20
2022-09-28T15:27:58.519Z,10.30
2022-09-28T15:33:24.316Z,10.40
2022-09-28T15:38:31.668Z,10.40
2022-09-28T15:43:38.157Z,10.40
2022-09-28T15:48:56.189Z,10.30
2022-09-28T15:54:09.982Z,10.40
2022-09-28T15:59:18.814Z,10.40
2022-09-28T16:04:50.179Z,10.60
2022-09-28T16:10:16.842Z,10.50
2022-09-28T16:15:28.831Z,10.50
2022-09-28T16:20:37.909Z,10.50
2022-09-28T16:25:55.606Z,10.30
2022-09-28T16:31:03.769Z,10.20
2022-09-28T16:36:15.094Z,10.30
2022-09-28T16:41:26.207Z,10.30
2022-09-28T16:46:36.397Z,10.10
2022-09-28T16:51:41.389Z,10.00
2022-09-28T16:56:46.955Z,9.90
2022-09-28T17:01:52.307Z,9.90
2022-09-28T17:06:58.809Z,9.90
2022-09-28T17:12:06.385Z,9.60
2022-09-28T17:22:18.900Z,9.40
2022-09-28T17:27:25.000Z,9.20
2022-09-28T17:32:32.017Z,9.40
2022-09-28T17:37:38.841Z,9.30
2022-09-28T17:42:43.911Z,9.20
2022-09-28T17:47:49.178Z,9.00
2022-09-28T17:52:55.126Z,8.90
2022-09-28T17:58:03.159Z,8.90
2022-09-28T18:03:21.188Z,8.90
2022-09-28T18:08:26.476Z,8.90
2022-09-28T18:13:32.511Z,8.90
2022-09-28T18:18:40.860Z,8.70
2022-09-28T18:23:46.431Z,8.70
2022-09-28T18:28:55.618Z,8.60
2022-09-28T18:34:03.445Z,8.60
2022-09-28T18:39:09.924Z,8.20
2022-09-28T18:44:15.409Z,8.20
2022-09-28T18:49:20.982Z,8.30
2022-09-28T18:54:28.330Z,8.20
2022-09-28T18:59:33.457Z,8.00
2022-09-28T19:04:39.955Z,7.70
2022-09-28T19:09:45.759Z,7.70
2022-09-28T19:14:51.725Z,7.60
2022-09-28T19:19:57.415Z,7.60
2022-09-28T19:25:02.777Z,7.20
2022-09-28T19:30:08.774Z,7.10
2022-09-28T19:35:14.066Z,7.20
2022-09-28T19:40:19.095Z,7.00
2022-09-28T19:45:24.815Z,6.70
2022-09-28T19:50:29.692Z,6.50
2022-09-28T19:55:36.265Z,6.10
2022-09-28T20:00:41.788Z,6.50
2022-09-28T20:05:50.237Z,6.20
2022-09-28T20:10:57.339Z,6.10
2022-09-28T20:16:10.862Z,6.10
2022-09-28T20:21:25.177Z,6.00
2022-09-28T20:26:29.665Z,6.10
2022-09-28T20:31:40.408Z,6.10
2022-09-28T20:36:45.709Z,6.10
2022-09-28T20:41:51.262Z,5.50
2022-09-28T20:46:56.757Z,5.60
2022-09-28T20:52:01.733Z,6.00
2022-09-28T20:57:08.545Z,6.10
2022-09-28T21:02:15.404Z,6.00
2022-09-28T21:07:20.934Z,6.00
2022-09-28T21:12:28.143Z,6.20
2022-09-28T21:17:33.997Z,6.20
2022-09-28T21:22:38.840Z,6.00
2022-09-28T21:27:44.763Z,6.00
2022-09-28T21:32:50.916Z,6.20
2022-09-28T21:37:57.412Z,6.10
2022-09-28T21:43:02.474Z,6.20
2022-09-28T21:48:07.402Z,6.10
2022-09-28T21:53:14.031Z,5.90
2022-09-28T21:58:21.099Z,5.60
2022-09-28T22:03:25.722Z,5.30
2022-09-28T22:08:33.637Z,5.50
2022-09-28T22:13:45.835Z,5.40
2022-09-28T22:18:52.784Z,5.20
2022-09-28T22:24:02.104Z,5.30
2022-09-28T22:29:09.956Z,5.00
2022-09-28T22:34:14.905Z,4.50
2022-09-28T22:39:20.560Z,4.30
2022-09-28T22:44:25.915Z,4.40
2022-09-28T22:49:31.934Z,4.50
2022-09-28T22:54:39.106Z,4.70
2022-09-28T22:59:44.492Z,4.70
2022-09-28T23:04:49.952Z,5.00
2022-09-28T23:09:56.877Z,5.20
2022-09-28T23:15:02.026Z,5.20
2022-09-28T23:20:08.433Z,5.30
2022-09-28T23:25:14.999Z,5.30
2022-09-28T23:30:23.671Z,5.30
2022-09-28T23:35:29.109Z,5.20
2022-09-28T23:40:34.258Z,5.10
2022-09-28T23:45:39.780Z,5.20
2022-09-28T23:50:45.869Z,5.30
2022-09-28T23:55:51.921Z,5.50
